M I D A S
Marine Information and Data Acquisition System
Tripno 1968 of the Zeeleeuw from 2010-09-29 05:11:20 to 2010-09-29 16:54:45
Back to CruiseResearch ActivitiesStationsMapUnderway DataData graphs

EquipmentUnitsComment
TimeDGPSUTC
LatitudeDGPSDM.mWGS84
LongitudeDGPSDM.mWGS84
HeadingGyrodeg 
SOGDGPSknotsSpeed over ground
COGDGPSdegCourse over ground
DepthEcho soundermeters200 kHz
Missing or incorrect values are displayed as -999
Navigation data collected by the RV Zeeleeuw from 2010-09-29 05:02:47 to 2010-09-29 17:04:34
                                                                                    Next 1000 lines
Time Latitude Longitude Heading SOG COG Depth
2010-09-29 05:02:57 51°13.648 2°55.988 113.5 0.8 292 10
2010-09-29 05:03:02 51°13.648 2°55.985 113.5 1.1 295 9.8
2010-09-29 05:03:07 51°13.649 2°55.982 113.6 1.5 292 10.2
2010-09-29 05:03:12 51°13.65 2°55.979 113.8 1.8 295 10.3
2010-09-29 05:03:17 51°13.652 2°55.974 113.8 2.1 296 -999
2010-09-29 05:03:23 51°13.653 2°55.969 113.8 2.4 296 -999
2010-09-29 05:03:29 51°13.656 2°55.962 113.3 2.7 296 -999
2010-09-29 05:03:34 51°13.658 2°55.956 113 3.1 295 -999
2010-09-29 05:03:41 51°13.661 2°55.946 112.6 3.3 295 -999
2010-09-29 05:03:46 51°13.662 2°55.939 112.1 3.6 292 -999
2010-09-29 05:03:51 51°13.665 2°55.931 111.5 3.8 291 -999
2010-09-29 05:03:56 51°13.667 2°55.923 111 4 292 -999
2010-09-29 05:04:01 51°13.669 2°55.915 110.7 4.1 291 -999
2010-09-29 05:04:06 51°13.671 2°55.906 110.7 4.2 291 -999
2010-09-29 05:04:11 51°13.673 2°55.897 110.8 4.3 291 -999
2010-09-29 05:04:16 51°13.675 2°55.889 111.1 4.4 292 -999
2010-09-29 05:04:21 51°13.677 2°55.88 111 4.4 293 -999
2010-09-29 05:04:26 51°13.68 2°55.871 110.7 4.3 292 -999
2010-09-29 05:04:31 51°13.682 2°55.862 110.4 4.3 292 -999
2010-09-29 05:04:36 51°13.684 2°55.854 110.1 4.2 291 -999
2010-09-29 05:04:41 51°13.686 2°55.845 109.7 4 291 -999
2010-09-29 05:04:46 51°13.687 2°55.837 109.4 4 291 -999
2010-09-29 05:04:51 51°13.69 2°55.829 108.9 4.1 291 -999
2010-09-29 05:04:56 51°13.691 2°55.821 108.5 3.9 290 -999
2010-09-29 05:05:01 51°13.693 2°55.813 108.2 3.8 290 12.4
2010-09-29 05:05:06 51°13.695 2°55.805 107.7 3.7 290 -999
2010-09-29 05:05:11 51°13.696 2°55.797 106.9 3.6 289 -999
2010-09-29 05:05:16 51°13.698 2°55.79 106 3.5 289 -999
2010-09-29 05:05:21 51°13.7 2°55.783 105.3 3.4 290 14.2
2010-09-29 05:05:25 51°13.701 2°55.778 104.6 3.3 288 14.3
2010-09-29 05:05:30 51°13.702 2°55.771 103.8 3.2 287 14.5
2010-09-29 05:05:35 51°13.704 2°55.764 103.2 3.1 286 14.8
2010-09-29 05:05:41 51°13.705 2°55.756 101.9 2.9 286 4.4
2010-09-29 05:05:45 51°13.706 2°55.752 101 2.5 286 -999
2010-09-29 05:05:51 51°13.707 2°55.748 99.5 1.8 289 -999
2010-09-29 05:05:56 51°13.707 2°55.745 96.5 1.2 294 -999
2010-09-29 05:06:01 51°13.707 2°55.745 92.5 0.6 315 -999
2010-09-29 05:06:05 51°13.708 2°55.745 88.6 0.4 22 14.6
2010-09-29 05:06:11 51°13.709 2°55.746 83.9 0.7 43 -999
2010-09-29 05:06:16 51°13.709 2°55.748 78.8 0.9 53 15.1
2010-09-29 05:06:21 51°13.71 2°55.749 71.3 0.8 42 14.6
2010-09-29 05:06:25 51°13.711 2°55.749 66.9 0.6 43 -999
2010-09-29 05:06:31 51°13.711 2°55.749 63 0.2 8 14.6
2010-09-29 05:06:35 51°13.711 2°55.749 60 0.3 293 14.6
2010-09-29 05:06:41 51°13.711 2°55.748 57 0.6 254 14.6
2010-09-29 05:06:45 51°13.71 2°55.745 54.5 0.9 249 14.6
2010-09-29 05:06:50 51°13.709 2°55.743 52.2 1.5 238 14.6
2010-09-29 05:06:55 51°13.708 2°55.739 50.4 1.8 238 14.6
2010-09-29 05:07:00 51°13.706 2°55.736 48.4 1.9 235 14.8
2010-09-29 05:07:05 51°13.705 2°55.733 46.1 1.8 231 -999
2010-09-29 05:07:10 51°13.703 2°55.73 43.9 1.7 232 -999
2010-09-29 05:07:16 51°13.702 2°55.727 42.2 1.5 233 -999
2010-09-29 05:07:21 51°13.701 2°55.726 40.7 0.8 238 -999
2010-09-29 05:07:26 51°13.701 2°55.726 38 0.1 331 -999
2010-09-29 05:07:31 51°13.703 2°55.726 32.5 0.7 6 15.5
2010-09-29 05:07:36 51°13.704 2°55.727 27.5 1.2 15 15.4
2010-09-29 05:07:41 51°13.707 2°55.727 22.2 1.6 4 -999
2010-09-29 05:07:46 51°13.71 2°55.728 16.4 2.1 2 14.6
2010-09-29 05:07:51 51°13.713 2°55.727 7.5 2.4 357 14.1
2010-09-29 05:07:56 51°13.717 2°55.726 -999 2.7 352 -999
2010-09-29 05:08:01 51°13.721 2°55.724 352.4 3.1 345 14.1
2010-09-29 05:08:06 51°13.726 2°55.721 343.9 3.5 339 4.6
2010-09-29 05:08:11 51°13.731 2°55.717 340.2 4 338 14
2010-09-29 05:08:15 51°13.736 2°55.714 337.6 4.5 336 13.6
2010-09-29 05:08:21 51°13.743 2°55.708 335.7 4.9 335 13.4
2010-09-29 05:08:25 51°13.749 2°55.704 334.9 5.2 334 13.4
2010-09-29 05:08:30 51°13.756 2°55.698 334.4 5.6 333 13
2010-09-29 05:08:35 51°13.763 2°55.692 333.4 5.9 333 12.7
2010-09-29 05:08:40 51°13.771 2°55.686 333 6.3 332 12.9
2010-09-29 05:08:45 51°13.779 2°55.678 332.9 6.6 332 13.2
2010-09-29 05:08:49 51°13.786 2°55.673 332.7 6.9 331 13.4
2010-09-29 05:08:54 51°13.795 2°55.665 332.4 7.2 331 13
2010-09-29 05:08:59 51°13.804 2°55.658 332.1 7.4 333 12.9
2010-09-29 05:09:04 51°13.813 2°55.65 332.5 7.7 333 12.7
2010-09-29 05:09:09 51°13.824 2°55.642 333.1 8.1 332 13
2010-09-29 05:09:13 51°13.832 2°55.635 333.1 8.4 334 12.8
2010-09-29 05:09:18 51°13.842 2°55.627 333.5 8.6 334 13
2010-09-29 05:09:23 51°13.853 2°55.618 333.8 8.8 333 12.7
2010-09-29 05:09:29 51°13.867 2°55.608 334 9 334 12.7
2010-09-29 05:09:33 51°13.876 2°55.601 334.5 9.2 334 12.4
2010-09-29 05:09:38 51°13.888 2°55.591 334.7 9.3 334 12.3
2010-09-29 05:09:43 51°13.9 2°55.582 334.7 9.5 334 12.6
2010-09-29 05:09:47 51°13.91 2°55.575 335.5 9.6 335 12.4
2010-09-29 05:09:52 51°13.922 2°55.566 335.4 9.7 334 12.5
2010-09-29 05:09:57 51°13.934 2°55.557 335.4 9.7 335 12.5
2010-09-29 05:10:02 51°13.946 2°55.548 335.7 9.8 335 12.4
2010-09-29 05:10:07 51°13.958 2°55.538 335.3 9.8 333 12.2
2010-09-29 05:10:12 51°13.971 2°55.529 334.4 9.8 334 12.2
2010-09-29 05:10:17 51°13.983 2°55.519 334.7 9.9 334 12.2
2010-09-29 05:10:22 51°13.995 2°55.509 334.8 9.9 333 12.1
2010-09-29 05:10:27 51°14.008 2°55.5 334 10 333 12
2010-09-29 05:10:32 51°14.02 2°55.49 333.9 9.9 334 11.9
2010-09-29 05:10:37 51°14.032 2°55.48 334 10 333 11.8
2010-09-29 05:10:42 51°14.045 2°55.471 334 10 334 11.8
2010-09-29 05:10:47 51°14.057 2°55.461 334.4 10 334 11.7
2010-09-29 05:10:52 51°14.07 2°55.451 334.5 10 334 11.7
2010-09-29 05:10:57 51°14.082 2°55.442 334.7 10 334 11.7
2010-09-29 05:11:02 51°14.095 2°55.432 334.7 10.1 334 11.7
2010-09-29 05:11:07 51°14.107 2°55.422 334.6 10.1 334 11.9
2010-09-29 05:11:12 51°14.12 2°55.412 334.9 10.1 334 11.8
2010-09-29 05:11:17 51°14.133 2°55.402 334.7 10.2 333 11.9
2010-09-29 05:11:22 51°14.145 2°55.392 334.2 10.2 334 12.1
2010-09-29 05:11:27 51°14.157 2°55.382 333.9 10.1 332 11.9
2010-09-29 05:11:32 51°14.17 2°55.372 333.5 10.2 333 11.9
2010-09-29 05:11:37 51°14.183 2°55.361 333.7 10.3 333 12
2010-09-29 05:11:42 51°14.196 2°55.35 333.6 10.4 332 11.9
2010-09-29 05:11:47 51°14.208 2°55.34 333.2 10.4 332 11.9
2010-09-29 05:11:53 51°14.223 2°55.326 332 10.5 330 11.8
2010-09-29 05:11:57 51°14.233 2°55.316 331 10.5 330 11.9
2010-09-29 05:12:02 51°14.246 2°55.304 330.7 10.5 329 12
2010-09-29 05:12:07 51°14.258 2°55.292 329.6 10.6 328 11.8
2010-09-29 05:12:12 51°14.271 2°55.279 328.2 10.6 327 11.9
2010-09-29 05:12:17 51°14.283 2°55.266 327 10.7 326 12
2010-09-29 05:12:22 51°14.295 2°55.253 326.9 10.7 327 12
2010-09-29 05:12:27 51°14.308 2°55.24 327.3 10.7 327 12
2010-09-29 05:12:32 51°14.321 2°55.227 328.1 10.8 328 12
2010-09-29 05:12:37 51°14.333 2°55.214 328.2 10.9 327 11.8
2010-09-29 05:12:42 51°14.346 2°55.202 328.7 10.9 330 11.8
2010-09-29 05:12:47 51°14.36 2°55.191 330.5 10.9 331 11.8
2010-09-29 05:12:52 51°14.373 2°55.179 331.9 10.9 331 11.8
2010-09-29 05:12:57 51°14.386 2°55.167 332.1 11.1 331 11.6
2010-09-29 05:13:02 51°14.4 2°55.154 331.2 11.2 330 11.8
2010-09-29 05:13:07 51°14.414 2°55.142 331.3 11.4 331 11.9
2010-09-29 05:13:12 51°14.427 2°55.129 331.7 11.5 329 11.9
2010-09-29 05:13:17 51°14.441 2°55.116 330.6 11.6 329 12.2
2010-09-29 05:13:22 51°14.455 2°55.103 330.3 11.7 329 12.3
2010-09-29 05:13:27 51°14.469 2°55.089 329.4 11.9 328 12.4
2010-09-29 05:13:32 51°14.483 2°55.076 329.9 12.1 329 12.4
2010-09-29 05:13:37 51°14.498 2°55.063 331.1 12.2 330 12.5
2010-09-29 05:13:42 51°14.512 2°55.049 331.1 12.1 329 12.5
2010-09-29 05:13:47 51°14.527 2°55.035 330.8 12.2 330 12.7
2010-09-29 05:13:52 51°14.542 2°55.02 330.7 12.5 329 12.9
2010-09-29 05:13:57 51°14.557 2°55.006 330.1 12.7 329 13.1
2010-09-29 05:14:02 51°14.572 2°54.99 328.7 12.9 327 13.2
2010-09-29 05:14:07 51°14.588 2°54.975 327.8 13.1 327 13.1
2010-09-29 05:14:12 51°14.603 2°54.959 327.2 13.1 327 13
2010-09-29 05:14:17 51°14.619 2°54.944 327.6 13.2 329 13
2010-09-29 05:14:22 51°14.634 2°54.929 328.5 13.2 329 13
2010-09-29 05:14:27 51°14.65 2°54.913 327.6 13.3 327 13
2010-09-29 05:14:32 51°14.666 2°54.897 326.8 13.5 327 13.2
2010-09-29 05:14:37 51°14.681 2°54.881 326.3 13.4 326 13.3
2010-09-29 05:14:42 51°14.697 2°54.865 326.1 13.4 327 13.2
2010-09-29 05:14:47 51°14.713 2°54.849 326.2 13.4 328 13.1
2010-09-29 05:14:52 51°14.728 2°54.834 326.7 13.4 328 13
2010-09-29 05:14:57 51°14.744 2°54.817 326.5 13.4 328 13
2010-09-29 05:15:02 51°14.76 2°54.803 326.8 13.5 330 12.9
2010-09-29 05:15:07 51°14.776 2°54.787 327.2 13.3 329 13.6
2010-09-29 05:15:12 51°14.792 2°54.772 327.2 13.4 329 -999
2010-09-29 05:15:17 51°14.807 2°54.756 326 13.3 328 13.1
2010-09-29 05:15:22 51°14.823 2°54.74 325.3 13.3 329 13
2010-09-29 05:15:28 51°14.842 2°54.722 325.2 13.3 328 -999
2010-09-29 05:15:33 51°14.857 2°54.705 323.8 13.2 326 -999
2010-09-29 05:15:39 51°14.875 2°54.685 323.1 13.1 325 -999
2010-09-29 05:15:45 51°14.893 2°54.666 322.1 13.2 325 13
2010-09-29 05:15:50 51°14.908 2°54.648 321.9 13.3 324 -999
2010-09-29 05:15:55 51°14.923 2°54.631 321.5 13.2 324 13
2010-09-29 05:16:00 51°14.938 2°54.614 321 13.2 324 13.3
2010-09-29 05:16:05 51°14.952 2°54.597 320.9 13.1 325 12.4
2010-09-29 05:16:10 51°14.967 2°54.581 321.1 13.1 325 11.6
2010-09-29 05:16:15 51°14.983 2°54.564 321.5 13.2 326 11.4
2010-09-29 05:16:20 51°14.998 2°54.547 321.9 13.3 325 11.4
2010-09-29 05:16:25 51°15.013 2°54.531 321.9 13.3 326 11.4
2010-09-29 05:16:29 51°15.025 2°54.518 321.8 13.3 325 11.4
2010-09-29 05:16:34 51°15.04 2°54.5 321.2 13.3 324 11.3
2010-09-29 05:16:39 51°15.055 2°54.483 320.7 13.3 324 11.4
2010-09-29 05:16:44 51°15.07 2°54.465 320.1 13.3 324 11.1
2010-09-29 05:16:49 51°15.085 2°54.448 319.5 13.3 324 11.4
2010-09-29 05:16:53 51°15.097 2°54.434 319.4 13.3 323 11.5
2010-09-29 05:16:58 51°15.111 2°54.416 318.9 13.3 323 11
2010-09-29 05:17:03 51°15.126 2°54.398 318.7 13.2 323 11
2010-09-29 05:17:08 51°15.14 2°54.38 318.8 13.1 321 11
2010-09-29 05:17:13 51°15.155 2°54.361 318.5 13.1 321 11.1
2010-09-29 05:17:17 51°15.166 2°54.347 318.4 13.1 321 11.5
2010-09-29 05:17:22 51°15.18 2°54.329 318.7 13.2 322 11.5
2010-09-29 05:17:27 51°15.195 2°54.311 319.1 13.3 322 11.4
2010-09-29 05:17:32 51°15.209 2°54.293 319.5 13.2 322 11.3
2010-09-29 05:17:37 51°15.224 2°54.275 319.9 13.2 322 11.3
2010-09-29 05:17:42 51°15.238 2°54.257 319.9 13.1 322 11.6
2010-09-29 05:17:47 51°15.252 2°54.24 320 13.1 322 11.6
2010-09-29 05:17:52 51°15.267 2°54.221 320.1 13.1 322 11.6
2010-09-29 05:17:57 51°15.281 2°54.204 320.2 13.1 322 11.8
2010-09-29 05:18:02 51°15.296 2°54.186 320.2 13.1 323 11.5
2010-09-29 05:18:07 51°15.31 2°54.169 320.4 13.1 322 11.6
2010-09-29 05:18:12 51°15.324 2°54.151 320.2 13.1 322 11.6
2010-09-29 05:18:17 51°15.338 2°54.134 320.2 13 322 11.5
2010-09-29 05:18:22 51°15.353 2°54.116 320.2 13.1 322 11.5
2010-09-29 05:18:27 51°15.367 2°54.098 320 13 321 11.8
2010-09-29 05:18:32 51°15.381 2°54.08 319.9 13.2 322 11.9
2010-09-29 05:18:37 51°15.396 2°54.062 319.4 13.1 321 11.7
2010-09-29 05:18:42 51°15.41 2°54.043 318.6 13.2 320 11.8
2010-09-29 05:18:47 51°15.424 2°54.025 318.2 13.1 321 12.1
2010-09-29 05:18:52 51°15.437 2°54.006 317.8 13 320 12
2010-09-29 05:18:57 51°15.452 2°53.986 317.3 13.4 319 12
2010-09-29 05:19:02 51°15.465 2°53.967 317 13.4 319 12.1
2010-09-29 05:19:07 51°15.479 2°53.948 316.8 13.1 319 12.2
2010-09-29 05:19:12 51°15.493 2°53.928 316 13.3 318 12.3
2010-09-29 05:19:17 51°15.507 2°53.909 315.6 13.3 318 12.5
2010-09-29 05:19:22 51°15.521 2°53.889 315.1 13.3 318 12.4
2010-09-29 05:19:27 51°15.534 2°53.869 314.5 13.3 318 12.6
2010-09-29 05:19:32 51°15.548 2°53.849 314.4 13.3 317 12.7
2010-09-29 05:19:37 51°15.562 2°53.829 314.5 13.4 318 12.7
2010-09-29 05:19:42 51°15.575 2°53.809 314.7 13.4 318 12.7
2010-09-29 05:19:47 51°15.589 2°53.79 314.7 13.4 318 13
2010-09-29 05:19:52 51°15.603 2°53.77 315.1 13.3 319 12.6
2010-09-29 05:19:57 51°15.617 2°53.751 315 13.3 318 12.8
2010-09-29 05:20:02 51°15.631 2°53.731 314.7 13.4 318 12.9
2010-09-29 05:20:08 51°15.647 2°53.708 314.9 13.3 319 12.7
2010-09-29 05:20:12 51°15.658 2°53.692 315.3 13.3 319 12.8
2010-09-29 05:20:17 51°15.672 2°53.673 315.6 13.2 320 12.9
2010-09-29 05:20:22 51°15.686 2°53.654 315.8 13.1 320 13
2010-09-29 05:20:27 51°15.7 2°53.635 316 13.3 320 12.9
2010-09-29 05:20:32 51°15.714 2°53.617 316.2 13.3 320 13
2010-09-29 05:20:37 51°15.728 2°53.598 315.8 13.1 319 12.8
2010-09-29 05:20:42 51°15.742 2°53.579 315.8 13 320 12.7
2010-09-29 05:20:48 51°15.758 2°53.556 315.8 13 320 13
2010-09-29 05:20:52 51°15.77 2°53.541 316 13.1 319 13
2010-09-29 05:20:57 51°15.783 2°53.522 316 13 319 13
2010-09-29 05:21:02 51°15.797 2°53.503 315.9 13 319 13.1
2010-09-29 05:21:07 51°15.811 2°53.485 316 13 320 12.6
2010-09-29 05:21:12 51°15.825 2°53.466 316.3 13 320 12.9
2010-09-29 05:21:17 51°15.838 2°53.447 316.1 12.9 319 13.1
2010-09-29 05:21:22 51°15.852 2°53.429 316.1 12.9 320 13.1
2010-09-29 05:21:27 51°15.866 2°53.41 316.4 13 321 12.9
2010-09-29 05:21:32 51°15.88 2°53.392 316.8 13 320 13
2010-09-29 05:21:37 51°15.894 2°53.375 317.1 13.1 321 13.2
2010-09-29 05:21:42 51°15.908 2°53.356 316.7 13.1 321 13.2
2010-09-29 05:21:47 51°15.922 2°53.338 316.8 13.1 322 12.8
2010-09-29 05:21:52 51°15.937 2°53.322 318.2 13 324 13
2010-09-29 05:21:57 51°15.951 2°53.304 319.4 13 323 13.1
2010-09-29 05:22:02 51°15.967 2°53.289 322 13.2 328 13.1
2010-09-29 05:22:07 51°15.983 2°53.273 323.1 13.2 328 13.1
2010-09-29 05:22:12 51°15.999 2°53.259 325.2 13.4 331 13.1
2010-09-29 05:22:17 51°16.015 2°53.245 326.9 13.3 331 12.7
2010-09-29 05:22:22 51°16.031 2°53.233 328.7 13.2 335 13.3
2010-09-29 05:22:27 51°16.048 2°53.22 329.9 13.2 334 13.3
2010-09-29 05:22:32 51°16.065 2°53.207 330.5 13.3 336 13.3
2010-09-29 05:22:37 51°16.082 2°53.195 331.7 13.4 336 13.1
2010-09-29 05:22:42 51°16.098 2°53.184 332.4 13.4 337 13.2
2010-09-29 05:22:47 51°16.116 2°53.172 332.9 13.4 337 13
2010-09-29 05:22:52 51°16.133 2°53.161 333.3 13.3 337 13
2010-09-29 05:22:57 51°16.15 2°53.149 333.9 13.4 337 13.1
2010-09-29 05:23:02 51°16.167 2°53.137 334 13.5 337 13.2
2010-09-29 05:23:07 51°16.184 2°53.126 334 13.4 337 13.1
2010-09-29 05:23:12 51°16.201 2°53.115 334.1 13.5 337 13.3
2010-09-29 05:23:17 51°16.219 2°53.103 334.2 13.5 337 13
2010-09-29 05:23:22 51°16.236 2°53.092 334.3 13.5 338 13.2
2010-09-29 05:23:27 51°16.253 2°53.08 334.3 13.4 338 13.3
2010-09-29 05:23:32 51°16.27 2°53.069 334.5 13.4 337 13.2
2010-09-29 05:23:37 51°16.288 2°53.057 334.1 13.5 337 13.7
2010-09-29 05:23:42 51°16.305 2°53.046 334 13.5 337 13.4
2010-09-29 05:23:47 51°16.322 2°53.034 333.9 13.5 337 13.3
2010-09-29 05:23:52 51°16.34 2°53.023 333.7 13.5 337 13.3
2010-09-29 05:23:57 51°16.357 2°53.012 333.7 13.5 338 13.6
2010-09-29 05:24:02 51°16.374 2°53 333.9 13.5 337 13.6
2010-09-29 05:24:07 51°16.392 2°52.988 333.5 13.6 337 13.2
2010-09-29 05:24:12 51°16.409 2°52.977 333.3 13.6 338 13.3
2010-09-29 05:24:17 51°16.426 2°52.965 333.4 13.6 337 13.3
2010-09-29 05:24:22 51°16.444 2°52.954 333.7 13.6 337 13
2010-09-29 05:24:27 51°16.461 2°52.942 333.4 13.5 336 13.3
2010-09-29 05:24:32 51°16.478 2°52.93 333.2 13.6 337 13.5
2010-09-29 05:24:37 51°16.495 2°52.918 333.1 13.5 337 13.4
2010-09-29 05:24:42 51°16.513 2°52.907 332.9 13.6 337 13.3
2010-09-29 05:24:47 51°16.53 2°52.895 332.7 13.6 337 13.1
2010-09-29 05:24:52 51°16.547 2°52.883 332.7 13.5 337 12.8
2010-09-29 05:24:57 51°16.564 2°52.871 332.7 13.4 337 13.3
2010-09-29 05:25:02 51°16.581 2°52.859 332.6 13.6 337 13.2
2010-09-29 05:25:07 51°16.599 2°52.847 332.6 13.5 336 12.8
2010-09-29 05:25:12 51°16.616 2°52.835 332.5 13.5 337 12.7
2010-09-29 05:25:17 51°16.633 2°52.823 332.5 13.5 337 12.9
2010-09-29 05:25:22 51°16.65 2°52.811 332.4 13.5 336 12.7
2010-09-29 05:25:27 51°16.667 2°52.8 332.4 13.5 337 12.4
2010-09-29 05:25:32 51°16.685 2°52.788 332.6 13.5 337 12.4
2010-09-29 05:25:37 51°16.702 2°52.776 332.7 13.5 337 12.2
2010-09-29 05:25:42 51°16.719 2°52.764 332.8 13.4 337 12
2010-09-29 05:25:47 51°16.736 2°52.753 332.8 13.5 337 11.8
2010-09-29 05:25:52 51°16.753 2°52.741 332.8 13.5 337 11.2
2010-09-29 05:25:57 51°16.771 2°52.729 332.6 13.4 336 11.1
2010-09-29 05:26:02 51°16.788 2°52.717 332.5 13.4 336 11.1
2010-09-29 05:26:07 51°16.805 2°52.705 332.5 13.4 336 11
2010-09-29 05:26:12 51°16.821 2°52.693 332.4 13.4 336 11.1
2010-09-29 05:26:17 51°16.839 2°52.68 332.3 13.4 336 11.1
2010-09-29 05:26:22 51°16.855 2°52.668 332.3 13.4 335 11.1
2010-09-29 05:26:27 51°16.872 2°52.655 332.3 13.4 335 11.2
2010-09-29 05:26:32 51°16.889 2°52.643 332.3 13.4 335 11.2
2010-09-29 05:26:37 51°16.906 2°52.63 332.5 13.4 335 11.4
2010-09-29 05:26:42 51°16.923 2°52.618 332.4 13.5 335 11.3
2010-09-29 05:26:47 51°16.94 2°52.605 332.4 13.4 335 11.3
2010-09-29 05:26:52 51°16.957 2°52.593 332.6 13.5 335 11.4
2010-09-29 05:26:57 51°16.973 2°52.58 332.7 13.3 335 11.9
2010-09-29 05:27:02 51°16.99 2°52.568 332.3 13.4 335 11.4
2010-09-29 05:27:07 51°17.007 2°52.555 332.5 13.4 335 11.2
2010-09-29 05:27:12 51°17.024 2°52.543 332.7 13.4 335 11.2
2010-09-29 05:27:17 51°17.041 2°52.53 332.9 13.4 335 11.2
2010-09-29 05:27:22 51°17.058 2°52.518 332.6 13.4 336 11.2
2010-09-29 05:27:27 51°17.075 2°52.506 332.6 13.5 336 11.1
2010-09-29 05:27:32 51°17.092 2°52.495 333.2 13.4 338 11
2010-09-29 05:27:37 51°17.11 2°52.487 337.1 13.5 343 11.3
2010-09-29 05:27:42 51°17.128 2°52.477 339.2 13.5 342 11.3
2010-09-29 05:27:47 51°17.147 2°52.471 341.6 13.6 347 11.6
2010-09-29 05:27:52 51°17.164 2°52.463 343.4 13.6 345 11.4
2010-09-29 05:27:57 51°17.183 2°52.457 345.3 13.6 349 11.9
2010-09-29 05:28:02 51°17.201 2°52.451 346.2 13.6 347 11.5
2010-09-29 05:28:07 51°17.22 2°52.446 347.2 13.5 350 11.5
2010-09-29 05:28:12 51°17.238 2°52.44 348.2 13.6 349 11.9
2010-09-29 05:28:17 51°17.257 2°52.435 348.7 13.6 350 11.4
2010-09-29 05:28:22 51°17.275 2°52.431 349.2 13.6 351 11.6
2010-09-29 05:28:27 51°17.294 2°52.426 350.1 13.7 352 11.9
2010-09-29 05:28:32 51°17.313 2°52.422 350.4 13.7 352 11.8
2010-09-29 05:28:37 51°17.331 2°52.418 351 13.6 353 11.7
2010-09-29 05:28:42 51°17.35 2°52.414 351.1 13.8 352 12.1
2010-09-29 05:28:47 51°17.369 2°52.41 351.2 13.7 353 11.5
2010-09-29 05:28:52 51°17.388 2°52.406 351.2 13.7 352 11.8
2010-09-29 05:28:57 51°17.407 2°52.402 350.9 13.8 352 11.9
2010-09-29 05:29:02 51°17.425 2°52.397 350.7 13.8 351 11.7
2010-09-29 05:29:08 51°17.448 2°52.392 350 13.6 351 11.4
2010-09-29 05:29:12 51°17.462 2°52.388 349.9 13.5 350 11.6
2010-09-29 05:29:17 51°17.481 2°52.383 349.5 13.5 350 11.9
2010-09-29 05:29:22 51°17.499 2°52.379 349.8 13.5 351 12
2010-09-29 05:29:27 51°17.518 2°52.376 352 13.6 354 12.1
2010-09-29 05:29:32 51°17.537 2°52.373 353 13.6 355 11.8
2010-09-29 05:29:37 51°17.556 2°52.371 354.3 13.6 356 12
2010-09-29 05:29:42 51°17.575 2°52.369 355 13.7 356 11.9
2010-09-29 05:29:47 51°17.594 2°52.368 355.8 13.8 357 11.8
2010-09-29 05:29:52 51°17.613 2°52.367 356.7 13.8 358 11.7
2010-09-29 05:29:57 51°17.631 2°52.366 356.9 13.7 357 11.5
2010-09-29 05:30:02 51°17.65 2°52.365 356.9 13.7 359 11.5
2010-09-29 05:30:07 51°17.669 2°52.364 357.2 13.6 358 11.5
2010-09-29 05:30:12 51°17.688 2°52.365 358.4 13.8 1 12
2010-09-29 05:30:17 51°17.707 2°52.364 358.9 13.6 359 11.8
2010-09-29 05:30:22 51°17.725 2°52.366 359.4 13.6 2 11.8
2010-09-29 05:30:27 51°17.744 2°52.365 359.9 13.7 359 11.4
2010-09-29 05:30:32 51°17.763 2°52.366 359.7 13.6 2 11.4
2010-09-29 05:30:37 51°17.782 2°52.366 0.1 13.6 -999 11.9
2010-09-29 05:30:42 51°17.801 2°52.366 359.9 13.7 -999 11.8
2010-09-29 05:30:47 51°17.82 2°52.366 359.9 13.7 -999 11.9
2010-09-29 05:30:52 51°17.839 2°52.366 359.8 13.7 -999 11.8
2010-09-29 05:30:57 51°17.858 2°52.367 359.9 13.7 -999 12
2010-09-29 05:31:02 51°17.877 2°52.367 359.9 13.7 -999 11.9
2010-09-29 05:31:07 51°17.896 2°52.367 359.7 13.7 -999 11.7
2010-09-29 05:31:12 51°17.915 2°52.367 359.9 13.7 -999 11.7
2010-09-29 05:31:17 51°17.934 2°52.368 359.9 13.8 1 12.1
2010-09-29 05:31:22 51°17.954 2°52.368 359.9 13.9 1 11.6
2010-09-29 05:31:27 51°17.973 2°52.368 359.9 13.7 1 11.8
2010-09-29 05:31:32 51°17.992 2°52.368 -999 13.7 1 11.9
2010-09-29 05:31:37 51°18.011 2°52.368 359.9 13.7 -999 12.1
2010-09-29 05:31:42 51°18.03 2°52.369 359.5 13.8 -999 12.3
2010-09-29 05:31:47 51°18.049 2°52.368 359.4 13.8 359 11.8
2010-09-29 05:31:52 51°18.068 2°52.369 359.3 13.8 -999 11.8
2010-09-29 05:31:57 51°18.087 2°52.368 359.4 13.9 359 11.9
2010-09-29 05:32:02 51°18.107 2°52.368 359.1 13.7 -999 11.7
2010-09-29 05:32:07 51°18.126 2°52.369 359.3 13.8 -999 12
2010-09-29 05:32:12 51°18.145 2°52.369 359.3 13.8 -999 12.1
2010-09-29 05:32:17 51°18.164 2°52.37 359.4 13.8 1 12.1
2010-09-29 05:32:22 51°18.183 2°52.37 359.5 13.9 -999 12.2
2010-09-29 05:32:27 51°18.202 2°52.369 358.9 13.8 -999 11.9
2010-09-29 05:32:32 51°18.221 2°52.369 358.9 13.7 -999 12.2
2010-09-29 05:32:37 51°18.24 2°52.37 359.2 13.7 -999 12.5
2010-09-29 05:32:42 51°18.259 2°52.369 358.7 13.8 359 12.2
2010-09-29 05:32:47 51°18.278 2°52.369 358.6 13.7 -999 12.3
2010-09-29 05:32:52 51°18.297 2°52.369 359 13.8 -999 12.6
2010-09-29 05:32:57 51°18.317 2°52.369 358.8 13.8 -999 12.2
2010-09-29 05:33:02 51°18.336 2°52.369 359.1 13.7 -999 12.7
2010-09-29 05:33:07 51°18.354 2°52.369 359.1 13.7 -999 12.6
2010-09-29 05:33:12 51°18.373 2°52.369 359.3 13.7 -999 12.6
2010-09-29 05:33:17 51°18.393 2°52.368 358.7 13.7 359 12.9
2010-09-29 05:33:22 51°18.412 2°52.369 358.7 13.8 -999 12.9
2010-09-29 05:33:27 51°18.431 2°52.368 358.9 13.7 -999 12.7
2010-09-29 05:33:32 51°18.45 2°52.368 358.9 13.8 -999 12.7
2010-09-29 05:33:37 51°18.469 2°52.367 358.9 13.8 359 12.7
2010-09-29 05:33:42 51°18.489 2°52.366 358.4 13.9 359 12.4
2010-09-29 05:33:47 51°18.507 2°52.366 358.4 13.6 359 12.7
2010-09-29 05:33:52 51°18.526 2°52.365 358.3 13.7 359 12.7
2010-09-29 05:33:57 51°18.545 2°52.365 358.6 13.7 -999 12.9
2010-09-29 05:34:02 51°18.565 2°52.365 358.6 13.8 359 13.3
2010-09-29 05:34:07 51°18.584 2°52.365 358.6 13.8 -999 13.1
2010-09-29 05:34:12 51°18.603 2°52.365 358.9 13.8 -999 12.8
2010-09-29 05:34:17 51°18.622 2°52.365 359 13.8 -999 12.9
2010-09-29 05:34:22 51°18.641 2°52.365 359 13.9 -999 13.2
2010-09-29 05:34:27 51°18.66 2°52.365 358.9 13.7 -999 13
2010-09-29 05:34:32 51°18.679 2°52.365 358.7 13.7 -999 13.2
2010-09-29 05:34:37 51°18.698 2°52.365 358.6 13.7 -999 13.3
2010-09-29 05:34:42 51°18.717 2°52.364 358.4 13.7 359 13.1
2010-09-29 05:34:47 51°18.736 2°52.364 358.3 13.6 359 13.2
2010-09-29 05:34:52 51°18.754 2°52.364 358.1 13.6 359 13.4
2010-09-29 05:34:57 51°18.773 2°52.362 357.9 13.5 359 13.6
2010-09-29 05:35:02 51°18.792 2°52.362 358.3 13.5 -999 14.1
2010-09-29 05:35:07 51°18.811 2°52.362 358.2 13.6 359 13.8
2010-09-29 05:35:12 51°18.83 2°52.362 358.7 13.6 -999 13.6
2010-09-29 05:35:17 51°18.849 2°52.362 358.7 13.7 359 13.8
2010-09-29 05:35:22 51°18.868 2°52.362 358.7 13.7 -999 13.9
2010-09-29 05:35:27 51°18.887 2°52.361 358.5 13.7 359 14.3
2010-09-29 05:35:32 51°18.906 2°52.361 358.5 13.8 -999 14.1
2010-09-29 05:35:37 51°18.925 2°52.362 358.8 13.7 -999 14.2
2010-09-29 05:35:42 51°18.944 2°52.362 359.4 13.8 1 14.2
2010-09-29 05:35:47 51°18.963 2°52.362 359.3 13.7 -999 14
2010-09-29 05:35:52 51°18.983 2°52.363 358.9 13.7 -999 14.6
2010-09-29 05:35:57 51°19.002 2°52.363 358.6 13.8 -999 14.6
2010-09-29 05:36:02 51°19.021 2°52.364 359.3 13.7 1 14.7
2010-09-29 05:36:07 51°19.039 2°52.364 359.7 13.6 1 14.7
2010-09-29 05:36:12 51°19.058 2°52.365 -999 13.6 2 15.2
2010-09-29 05:36:17 51°19.077 2°52.366 0.1 13.6 1 14.9
2010-09-29 05:36:22 51°19.096 2°52.367 0.4 13.6 2 15.1
2010-09-29 05:36:27 51°19.115 2°52.368 0.7 13.6 1 15
2010-09-29 05:36:32 51°19.133 2°52.368 0.1 13.4 1 15
2010-09-29 05:36:37 51°19.152 2°52.369 0.4 13.5 1 15.5
2010-09-29 05:36:42 51°19.171 2°52.37 0.3 13.6 1 15.5
2010-09-29 05:36:47 51°19.19 2°52.371 0.3 13.5 2 15.5
2010-09-29 05:36:52 51°19.209 2°52.372 0.3 13.6 2 16
2010-09-29 05:36:57 51°19.227 2°52.373 0.3 13.5 2 15.9
2010-09-29 05:37:02 51°19.246 2°52.374 0.4 13.6 2 16.1
2010-09-29 05:37:07 51°19.265 2°52.374 0.3 13.5 1 15.6
2010-09-29 05:37:12 51°19.283 2°52.375 0.3 13.5 1 16.1
2010-09-29 05:37:17 51°19.302 2°52.375 0.2 13.6 1 15.8
2010-09-29 05:37:22 51°19.321 2°52.375 0.1 13.6 1 16
2010-09-29 05:37:27 51°19.339 2°52.375 359.9 13.4 -999 15.7
2010-09-29 05:37:32 51°19.358 2°52.376 359.9 13.4 -999 16.2
2010-09-29 05:37:37 51°19.376 2°52.376 0.1 13.4 -999 16.4
2010-09-29 05:37:42 51°19.395 2°52.377 0.1 13.5 1 16.1
2010-09-29 05:37:47 51°19.413 2°52.377 0.1 13.4 -999 16.5
2010-09-29 05:37:52 51°19.432 2°52.376 0.1 13.4 -999 16.7
2010-09-29 05:37:57 51°19.451 2°52.377 0.3 13.4 -999 16.5
2010-09-29 05:38:02 51°19.47 2°52.377 0.5 13.6 -999 16.5
2010-09-29 05:38:07 51°19.488 2°52.378 0.5 13.6 1 16.6
2010-09-29 05:38:12 51°19.507 2°52.379 0.7 13.6 1 16.5
2010-09-29 05:38:17 51°19.526 2°52.38 0.8 13.6 1 16.6
2010-09-29 05:38:22 51°19.545 2°52.38 0.8 13.7 1 16.7
2010-09-29 05:38:28 51°19.568 2°52.381 0.8 13.7 1 16.8
2010-09-29 05:38:32 51°19.584 2°52.381 0.5 13.8 1 16.8
2010-09-29 05:38:37 51°19.603 2°52.381 0.3 13.9 -999 16.9
2010-09-29 05:38:42 51°19.622 2°52.382 0.4 13.9 1 17
2010-09-29 05:38:47 51°19.642 2°52.383 0.4 14 1 16.8
2010-09-29 05:38:52 51°19.661 2°52.383 0.6 14 1 17
2010-09-29 05:38:57 51°19.68 2°52.384 0.6 14 1 16.8
2010-09-29 05:39:02 51°19.699 2°52.384 0.5 13.9 1 17.2
2010-09-29 05:39:07 51°19.719 2°52.385 0.6 13.9 1 16.9
2010-09-29 05:39:12 51°19.738 2°52.385 0.8 14 1 17.2
2010-09-29 05:39:17 51°19.758 2°52.386 0.6 14 1 17.3
2010-09-29 05:39:22 51°19.777 2°52.387 0.5 14.1 1 17.1
2010-09-29 05:39:27 51°19.796 2°52.388 0.3 14 1 17
2010-09-29 05:39:32 51°19.815 2°52.388 0.8 14 2 17.2
2010-09-29 05:39:37 51°19.835 2°52.389 0.6 14.1 1 16.7
2010-09-29 05:39:42 51°19.854 2°52.39 0.3 13.9 2 17
2010-09-29 05:39:47 51°19.873 2°52.391 0.8 13.8 2 17.3
2010-09-29 05:39:52 51°19.893 2°52.391 0.8 13.8 1 17.1
2010-09-29 05:39:57 51°19.912 2°52.392 0.7 13.8 1 17.8
2010-09-29 05:40:02 51°19.931 2°52.393 0.3 13.9 1 17.6
2010-09-29 05:40:07 51°19.951 2°52.394 0.2 14 1 17.4
2010-09-29 05:40:12 51°19.97 2°52.395 0.2 14 1 17.1
2010-09-29 05:40:17 51°19.99 2°52.396 0.6 14.1 2 17.2
2010-09-29 05:40:22 51°20.009 2°52.397 0.6 14.1 1 17.4
2010-09-29 05:40:28 51°20.033 2°52.397 0.3 14.2 1 17.3
2010-09-29 05:40:32 51°20.048 2°52.398 0.4 14.2 2 17.2
2010-09-29 05:40:37 51°20.068 2°52.399 0.6 14.2 2 17.1
2010-09-29 05:40:42 51°20.087 2°52.4 0.5 14.2 1 17.1
2010-09-29 05:40:47 51°20.107 2°52.401 0.3 14.1 1 17.2
2010-09-29 05:40:52 51°20.127 2°52.401 0.2 14.2 1 17.1
2010-09-29 05:40:57 51°20.146 2°52.402 0.2 14.2 1 17.4
2010-09-29 05:41:02 51°20.165 2°52.403 0.4 14.1 1 17.3
2010-09-29 05:41:07 51°20.185 2°52.403 0.3 14.1 1 17.1
2010-09-29 05:41:12 51°20.204 2°52.403 0.2 14 -999 17
2010-09-29 05:41:17 51°20.223 2°52.403 359.7 13.9 359 17.3
2010-09-29 05:41:22 51°20.243 2°52.403 359.7 13.9 -999 17.4
2010-09-29 05:41:27 51°20.262 2°52.403 359.5 13.8 359 17.5
2010-09-29 05:41:32 51°20.28 2°52.403 359.7 13.7 -999 17.2
2010-09-29 05:41:37 51°20.299 2°52.402 358.6 13.6 358 17.3
2010-09-29 05:41:42 51°20.319 2°52.401 357.9 13.7 358 17.1
2010-09-29 05:41:47 51°20.338 2°52.4 357.8 13.7 358 17.1
2010-09-29 05:41:52 51°20.357 2°52.398 357 13.8 357 17.1
2010-09-29 05:41:57 51°20.376 2°52.395 356 13.8 356 17
2010-09-29 05:42:02 51°20.395 2°52.394 355.5 13.8 356 17.3
2010-09-29 05:42:07 51°20.414 2°52.392 354.8 13.7 356 17.2
2010-09-29 05:42:12 51°20.433 2°52.389 354.6 13.7 355 17
2010-09-29 05:42:17 51°20.452 2°52.387 354.2 13.7 355 16.7
2010-09-29 05:42:22 51°20.471 2°52.384 353.9 13.9 355 16.7
2010-09-29 05:42:27 51°20.49 2°52.381 353.6 13.8 355 16.1
2010-09-29 05:42:32 51°20.509 2°52.379 353.9 13.8 355 16
2010-09-29 05:42:37 51°20.528 2°52.377 353.9 13.8 356 16.2
2010-09-29 05:42:42 51°20.547 2°52.374 354.1 13.8 355 15.8
2010-09-29 05:42:47 51°20.566 2°52.371 354 13.7 354 15.5
2010-09-29 05:42:52 51°20.585 2°52.369 353.6 13.7 355 15.8
2010-09-29 05:42:57 51°20.604 2°52.366 353.6 13.8 355 15
2010-09-29 05:43:02 51°20.623 2°52.364 353.6 13.8 355 14.9
2010-09-29 05:43:07 51°20.642 2°52.361 353.8 13.7 355 15.9
2010-09-29 05:43:12 51°20.661 2°52.359 353.7 13.7 355 16
2010-09-29 05:43:17 51°20.68 2°52.356 353.9 13.7 356 15.5
2010-09-29 05:43:22 51°20.699 2°52.355 354.1 13.7 356 15.2
2010-09-29 05:43:27 51°20.718 2°52.353 354.7 13.7 357 15.5
2010-09-29 05:43:32 51°20.737 2°52.351 354.5 13.6 356 15.2
2010-09-29 05:43:37 51°20.756 2°52.35 354.3 13.6 357 15.7
2010-09-29 05:43:42 51°20.775 2°52.347 354.1 13.5 356 15.8
2010-09-29 05:43:47 51°20.793 2°52.346 353.9 13.7 357 15.5
2010-09-29 05:43:52 51°20.812 2°52.343 353.7 13.7 356 15.8
2010-09-29 05:43:57 51°20.831 2°52.341 353.7 13.5 356 15.5
2010-09-29 05:44:02 51°20.85 2°52.339 354.1 13.8 356 15.6
2010-09-29 05:44:07 51°20.869 2°52.338 354 13.7 357 15.4
2010-09-29 05:44:12 51°20.888 2°52.335 353.9 13.8 356 15.8
2010-09-29 05:44:17 51°20.907 2°52.333 353.9 13.8 356 15.7
2010-09-29 05:44:22 51°20.926 2°52.332 354 13.7 356 15.8
2010-09-29 05:44:27 51°20.945 2°52.33 354 13.7 357 16
2010-09-29 05:44:32 51°20.964 2°52.328 354.3 13.7 356 16.4
2010-09-29 05:44:37 51°20.983 2°52.326 354.5 13.7 357 16.3
2010-09-29 05:44:42 51°21.002 2°52.325 354.3 13.7 357 16.3
2010-09-29 05:44:47 51°21.021 2°52.323 354.2 13.6 357 16
2010-09-29 05:44:52 51°21.039 2°52.321 353.9 13.6 356 16.6
2010-09-29 05:44:57 51°21.059 2°52.319 353.9 13.7 356 16.7
2010-09-29 05:45:02 51°21.078 2°52.317 353.7 13.7 356 17
2010-09-29 05:45:07 51°21.096 2°52.314 353.7 13.7 356 17
2010-09-29 05:45:12 51°21.115 2°52.312 353.9 13.7 356 17
2010-09-29 05:45:17 51°21.134 2°52.311 354.1 13.6 356 17.1
2010-09-29 05:45:22 51°21.153 2°52.308 353.9 13.6 357 17.1
2010-09-29 05:45:27 51°21.172 2°52.306 353.9 13.6 356 17.6
2010-09-29 05:45:32 51°21.191 2°52.304 354.2 13.6 356 17.7
2010-09-29 05:45:37 51°21.21 2°52.302 354.2 13.7 356 18.2
2010-09-29 05:45:42 51°21.229 2°52.3 354.1 13.8 356 18.1
2010-09-29 05:45:47 51°21.248 2°52.298 354.3 13.7 356 18.3
2010-09-29 05:45:52 51°21.267 2°52.296 354.3 13.7 356 18.5
2010-09-29 05:45:57 51°21.286 2°52.294 354.1 13.6 356 19.1
2010-09-29 05:46:02 51°21.305 2°52.292 354 13.6 356 18.9
2010-09-29 05:46:07 51°21.323 2°52.29 353.9 13.6 356 18.6
2010-09-29 05:46:12 51°21.342 2°52.288 354.3 13.7 356 18.9
2010-09-29 05:46:17 51°21.361 2°52.286 354.5 13.6 356 19
2010-09-29 05:46:22 51°21.38 2°52.284 354.3 13.6 356 19.5
2010-09-29 05:46:27 51°21.399 2°52.281 354.4 13.6 356 19.5
2010-09-29 05:46:32 51°21.417 2°52.279 354.5 13.6 356 19.6
2010-09-29 05:46:37 51°21.436 2°52.277 354.3 13.5 356 20.3
2010-09-29 05:46:42 51°21.455 2°52.275 354.2 13.6 356 20.3
2010-09-29 05:46:47 51°21.474 2°52.273 354.1 13.7 356 20.6
2010-09-29 05:46:52 51°21.493 2°52.271 354 13.6 356 20.4
2010-09-29 05:46:57 51°21.511 2°52.269 354.1 13.6 356 21.1
2010-09-29 05:47:02 51°21.53 2°52.267 354.4 13.5 356 21.5
2010-09-29 05:47:07 51°21.549 2°52.265 354.7 13.6 356 21.5
2010-09-29 05:47:12 51°21.568 2°52.263 354.3 13.6 356 21.5
2010-09-29 05:47:17 51°21.587 2°52.261 354.3 13.7 356 21.6
2010-09-29 05:47:22 51°21.606 2°52.26 354.3 13.6 357 22.1
2010-09-29 05:47:28 51°21.628 2°52.257 354.4 13.7 357 22.1
2010-09-29 05:47:32 51°21.644 2°52.256 354.5 13.7 356 22.6
2010-09-29 05:47:37 51°21.662 2°52.254 354.4 13.6 357 23
2010-09-29 05:47:42 51°21.681 2°52.253 354.7 13.7 357 23.1
2010-09-29 05:47:47 51°21.701 2°52.251 354.7 13.9 357 23.4
2010-09-29 05:47:52 51°21.72 2°52.251 354.5 13.9 358 23.6
2010-09-29 05:47:57 51°21.739 2°52.249 354.7 13.9 358 23.5
2010-09-29 05:48:02 51°21.758 2°52.251 356.4 13.9 2 23.7
2010-09-29 05:48:07 51°21.777 2°52.25 357.2 14 -999 23.9
2010-09-29 05:48:12 51°21.797 2°52.253 358.4 14 3 24.3
2010-09-29 05:48:17 51°21.816 2°52.253 358.7 14 2 24.7
2010-09-29 05:48:22 51°21.836 2°52.256 359.6 14.1 4 24.7
2010-09-29 05:48:27 51°21.855 2°52.257 0.1 14.1 3 24.6
2010-09-29 05:48:32 51°21.875 2°52.259 0.2 14.1 4 24.6
2010-09-29 05:48:37 51°21.894 2°52.261 0.7 14.1 4 24.8
2010-09-29 05:48:42 51°21.914 2°52.263 0.6 14.1 4 24.8
2010-09-29 05:48:47 51°21.933 2°52.265 0.7 14.1 4 24.9
2010-09-29 05:48:52 51°21.953 2°52.268 0.7 14.1 4 25.2
2010-09-29 05:48:57 51°21.972 2°52.269 0.8 14.1 3 25.4
2010-09-29 05:49:02 51°21.992 2°52.27 0.2 14 1 25.1
2010-09-29 05:49:07 51°22.011 2°52.271 359.5 14 3 24.7
2010-09-29 05:49:12 51°22.031 2°52.274 0.3 14.1 4 24.8
2010-09-29 05:49:17 51°22.05 2°52.275 0.5 14 3 25.2
2010-09-29 05:49:22 51°22.07 2°52.277 0.6 14 4 25.3
2010-09-29 05:49:27 51°22.089 2°52.279 0.8 14.1 4 24.8
2010-09-29 05:49:32 51°22.109 2°52.281 0.7 14 2 24.6
2010-09-29 05:49:37 51°22.128 2°52.282 -999 14 2 25
2010-09-29 05:49:42 51°22.147 2°52.284 0.1 13.9 3 25.5
2010-09-29 05:49:47 51°22.167 2°52.285 0.4 14 2 25.3
2010-09-29 05:49:53 51°22.19 2°52.288 1 14.1 5 25.2
2010-09-29 05:49:57 51°22.206 2°52.289 1.1 14 3 24.8
2010-09-29 05:50:02 51°22.225 2°52.292 1.1 14 4 24.7
2010-09-29 05:50:07 51°22.245 2°52.292 1 14 1 24.9
2010-09-29 05:50:12 51°22.264 2°52.294 -999 14 3 24.9
2010-09-29 05:50:17 51°22.284 2°52.297 0.6 14 4 24.8
2010-09-29 05:50:22 51°22.303 2°52.298 0.8 14 4 24.8
2010-09-29 05:50:27 51°22.322 2°52.301 1.2 13.9 4 24.7
2010-09-29 05:50:32 51°22.342 2°52.303 1.1 14 3 24.3
2010-09-29 05:50:37 51°22.361 2°52.305 0.7 14.1 4 24.1
2010-09-29 05:50:42 51°22.381 2°52.307 0.7 14.2 4 24
2010-09-29 05:50:47 51°22.401 2°52.309 0.5 14.2 3 23.8
2010-09-29 05:50:52 51°22.42 2°52.31 0.3 14.2 4 23.8
2010-09-29 05:50:57 51°22.44 2°52.312 0.1 14.1 2 23.4
2010-09-29 05:51:02 51°22.459 2°52.314 0.1 14.1 4 23.7
2010-09-29 05:51:07 51°22.479 2°52.315 0.5 14.1 3 23.9
2010-09-29 05:51:12 51°22.499 2°52.318 0.5 14.1 4 23.5
2010-09-29 05:51:17 51°22.518 2°52.319 0.4 14.1 3 23.8
2010-09-29 05:51:22 51°22.538 2°52.321 0.4 14.2 4 23.8
2010-09-29 05:51:27 51°22.557 2°52.322 0.4 14 2 23.6
2010-09-29 05:51:32 51°22.576 2°52.324 359.9 14 3 23.6
2010-09-29 05:51:37 51°22.596 2°52.325 0.3 14 2 23.7
2010-09-29 05:51:42 51°22.616 2°52.327 -999 14.1 3 23.6
2010-09-29 05:51:47 51°22.635 2°52.327 0.1 13.9 1 24.1
2010-09-29 05:51:53 51°22.658 2°52.329 359.9 14 2 23.9
2010-09-29 05:51:57 51°22.674 2°52.33 359.8 14 3 24
2010-09-29 05:52:02 51°22.693 2°52.331 0.1 13.9 2 23.9
2010-09-29 05:52:07 51°22.713 2°52.332 0.6 14 1 24
2010-09-29 05:52:13 51°22.736 2°52.334 0.2 13.9 2 23.4
2010-09-29 05:52:17 51°22.751 2°52.335 0.4 13.8 2 23.6
2010-09-29 05:52:22 51°22.77 2°52.335 0.1 13.9 1 23.3
2010-09-29 05:52:27 51°22.789 2°52.337 359.9 13.8 2 21.6
2010-09-29 05:52:32 51°22.809 2°52.338 0.3 13.8 2 24.3
2010-09-29 05:52:37 51°22.828 2°52.339 0.4 13.9 2 25.1
2010-09-29 05:52:42 51°22.847 2°52.34 0.7 13.8 2 24.9
2010-09-29 05:52:47 51°22.866 2°52.341 0.2 13.9 1 24.7
2010-09-29 05:52:52 51°22.886 2°52.343 0.3 14 4 24.7
2010-09-29 05:52:57 51°22.905 2°52.344 0.8 13.9 2 24.5
2010-09-29 05:53:02 51°22.925 2°52.345 0.6 14 3 24.5
2010-09-29 05:53:07 51°22.944 2°52.347 0.4 14.2 3 24.6
2010-09-29 05:53:12 51°22.964 2°52.348 0.9 13.9 3 23.8
2010-09-29 05:53:17 51°22.983 2°52.35 0.3 14 2 23.2
2010-09-29 05:53:22 51°23.002 2°52.351 0.3 13.9 2 23.5
2010-09-29 05:53:28 51°23.025 2°52.353 0.4 13.9 2 24.5
2010-09-29 05:53:32 51°23.041 2°52.354 -999 14 2 24.2
2010-09-29 05:53:37 51°23.06 2°52.355 0.1 14 2 24.2
2010-09-29 05:53:42 51°23.079 2°52.356 0.2 13.9 2 24.5
2010-09-29 05:53:47 51°23.099 2°52.358 0.5 14.1 3 23.9
2010-09-29 05:53:52 51°23.118 2°52.359 0.4 13.9 3 22.9
2010-09-29 05:53:57 51°23.137 2°52.361 0.8 13.9 3 22.1
2010-09-29 05:54:02 51°23.157 2°52.362 0.6 14 3 21.4
2010-09-29 05:54:07 51°23.176 2°52.364 0.8 14 3 23.4
2010-09-29 05:54:12 51°23.196 2°52.365 0.3 14 2 23.5
2010-09-29 05:54:17 51°23.215 2°52.367 0.3 14 3 23.5
2010-09-29 05:54:22 51°23.235 2°52.368 0.4 14.1 2 21.9
2010-09-29 05:54:27 51°23.254 2°52.37 0.2 14.1 2 22.4
2010-09-29 05:54:33 51°23.278 2°52.371 0.1 14.1 2 22.1
2010-09-29 05:54:37 51°23.293 2°52.373 0.3 14.2 3 21.2
2010-09-29 05:54:42 51°23.313 2°52.374 0.2 14.2 2 21.9
2010-09-29 05:54:47 51°23.333 2°52.376 0.1 14.3 3 21.8
2010-09-29 05:54:52 51°23.353 2°52.376 0.2 14.3 2 21.9
2010-09-29 05:54:57 51°23.372 2°52.378 0.4 14.1 3 21.1
2010-09-29 05:55:02 51°23.392 2°52.38 0.7 14.3 3 21.3
2010-09-29 05:55:07 51°23.412 2°52.382 0.7 14.3 3 21.8
2010-09-29 05:55:12 51°23.432 2°52.383 0.7 14.3 2 19.7
2010-09-29 05:55:17 51°23.452 2°52.385 0.6 14.5 3 20.6
2010-09-29 05:55:22 51°23.472 2°52.385 0.1 14.3 1 20.6
2010-09-29 05:55:27 51°23.491 2°52.387 0.5 14.2 4 20.9
2010-09-29 05:55:32 51°23.511 2°52.387 359.9 14.1 1 20.9
2010-09-29 05:55:37 51°23.531 2°52.389 0.4 14.2 3 20.7
2010-09-29 05:55:42 51°23.551 2°52.39 0.3 14.3 2 20.5
2010-09-29 05:55:47 51°23.571 2°52.392 0.1 14.3 2 19.2
2010-09-29 05:55:52 51°23.59 2°52.393 359.9 14.3 3 19
2010-09-29 05:55:57 51°23.61 2°52.394 0.5 14.3 2 19.3
2010-09-29 05:56:02 51°23.63 2°52.395 0.2 14.3 2 17.4
2010-09-29 05:56:07 51°23.65 2°52.397 0.3 14.2 3 18
2010-09-29 05:56:12 51°23.67 2°52.398 0.6 14.4 1 18.3
2010-09-29 05:56:17 51°23.69 2°52.399 0.3 14.3 2 18
2010-09-29 05:56:22 51°23.709 2°52.4 0.3 14.3 2 17.8
2010-09-29 05:56:27 51°23.729 2°52.401 0.3 14.4 2 17
2010-09-29 05:56:32 51°23.749 2°52.402 0.4 14.3 2 15.2
2010-09-29 05:56:37 51°23.769 2°52.403 0.2 14.2 1 16.7
2010-09-29 05:56:42 51°23.788 2°52.404 0.1 14.2 3 17.5
2010-09-29 05:56:47 51°23.808 2°52.405 0.1 14.3 2 17.5
2010-09-29 05:56:52 51°23.828 2°52.407 0.8 14.3 3 15.5
2010-09-29 05:56:57 51°23.848 2°52.408 0.6 14.2 2 17.6
2010-09-29 05:57:02 51°23.868 2°52.409 0.8 14.4 2 17.8
2010-09-29 05:57:07 51°23.888 2°52.409 0.2 14.2 1 17.9
2010-09-29 05:57:12 51°23.907 2°52.41 0.2 14.2 2 18.5
2010-09-29 05:57:17 51°23.927 2°52.411 0.1 14.2 1 18.6
2010-09-29 05:57:22 51°23.947 2°52.412 0.7 14.2 2 18.6
2010-09-29 05:57:27 51°23.966 2°52.413 0.7 14.2 3 18.8
2010-09-29 05:57:32 51°23.986 2°52.414 1.2 14.2 1 19.4
2010-09-29 05:57:37 51°24.006 2°52.414 0.2 14 -999 19.6
2010-09-29 05:57:42 51°24.025 2°52.415 0.4 14.1 1 19.6
2010-09-29 05:57:47 51°24.045 2°52.416 0.1 14.2 1 19.6
2010-09-29 05:57:52 51°24.064 2°52.417 0.1 14.1 2 19.6
2010-09-29 05:57:57 51°24.084 2°52.418 0.8 14 2 18.2
2010-09-29 05:58:02 51°24.103 2°52.419 0.8 14.1 1 17.9
2010-09-29 05:58:07 51°24.123 2°52.419 0.4 14.1 1 18.6
2010-09-29 05:58:12 51°24.143 2°52.42 0.6 14.1 2 19
2010-09-29 05:58:17 51°24.162 2°52.42 0.6 14.1 -999 19.6
2010-09-29 05:58:22 51°24.182 2°52.421 0.4 14.2 2 19.8
2010-09-29 05:58:27 51°24.201 2°52.422 0.5 14.2 1 20.3
2010-09-29 05:58:32 51°24.221 2°52.422 0.5 14.2 1 19.6
2010-09-29 05:58:37 51°24.24 2°52.422 359.7 14.1 -999 18.7
2010-09-29 05:58:42 51°24.26 2°52.423 0.2 14.1 2 19.1
2010-09-29 05:58:47 51°24.279 2°52.423 0.1 14.1 -999 18.3
2010-09-29 05:58:52 51°24.299 2°52.423 359.3 13.9 -999 19.9
2010-09-29 05:58:57 51°24.318 2°52.424 -999 14 1 20.6
2010-09-29 05:59:02 51°24.338 2°52.424 359.8 14.1 1 20.7
2010-09-29 05:59:07 51°24.357 2°52.424 0.2 14.1 -999 20.2
2010-09-29 05:59:13 51°24.38 2°52.424 -999 14 359 19.6
2010-09-29 05:59:17 51°24.396 2°52.425 0.1 14.1 1 19
2010-09-29 05:59:22 51°24.416 2°52.425 0.2 14.1 -999 19.1
2010-09-29 05:59:27 51°24.435 2°52.426 0.1 14.1 2 19.2
2010-09-29 05:59:32 51°24.454 2°52.426 0.7 14 -999 18.8
2010-09-29 05:59:37 51°24.474 2°52.427 0.5 13.9 1 18.6
2010-09-29 05:59:42 51°24.493 2°52.427 0.5 14 -999 19.4
2010-09-29 05:59:47 51°24.513 2°52.427 0.5 14 1 20.2
2010-09-29 05:59:52 51°24.532 2°52.427 0.5 14.1 -999 19.9
2010-09-29 05:59:57 51°24.552 2°52.429 0.3 14.1 1 20
2010-09-29 06:00:02 51°24.571 2°52.429 0.5 13.9 1 19.9
2010-09-29 06:00:07 51°24.59 2°52.429 0.1 13.8 1 20.5
2010-09-29 06:00:12 51°24.609 2°52.43 0.6 13.9 2 20.4
2010-09-29 06:00:17 51°24.629 2°52.429 0.8 14 -999 21.5
2010-09-29 06:00:22 51°24.648 2°52.43 0.5 14.1 1 21.7
2010-09-29 06:00:28 51°24.671 2°52.43 0.4 13.9 -999 20.9
2010-09-29 06:00:32 51°24.687 2°52.431 0.5 14 1 21.3
2010-09-29 06:00:37 51°24.706 2°52.431 0.8 14 1 21.6
2010-09-29 06:00:42 51°24.726 2°52.431 0.5 14.1 -999 21.6
2010-09-29 06:00:47 51°24.745 2°52.431 0.3 14 -999 22.3
2010-09-29 06:00:52 51°24.764 2°52.432 0.4 14.1 1 22.7
2010-09-29 06:00:57 51°24.784 2°52.432 0.1 14.1 -999 22.9
2010-09-29 06:01:02 51°24.803 2°52.433 0.4 14 1 23.5
2010-09-29 06:01:07 51°24.822 2°52.433 0.6 14 -999 23.8
2010-09-29 06:01:13 51°24.846 2°52.432 0.1 14.1 -999 23.8
2010-09-29 06:01:17 51°24.861 2°52.433 0.1 13.9 1 24.3
2010-09-29 06:01:22 51°24.881 2°52.433 0.2 14 -999 24.6
2010-09-29 06:01:27 51°24.901 2°52.433 0.3 14.1 1 24.6
2010-09-29 06:01:32 51°24.92 2°52.434 1 14 -999 24.7
2010-09-29 06:01:37 51°24.939 2°52.434 0.8 14 -999 24.7
2010-09-29 06:01:42 51°24.958 2°52.434 0.6 14 359 25
2010-09-29 06:01:47 51°24.977 2°52.433 359.9 13.9 359 25
2010-09-29 06:01:52 51°24.997 2°52.433 -999 13.9 359 24.8
2010-09-29 06:01:57 51°25.016 2°52.432 359.4 13.8 359 24.8
2010-09-29 06:02:02 51°25.035 2°52.432 -999 13.7 -999 25.2
2010-09-29 06:02:07 51°25.054 2°52.431 359.7 13.7 359 25.4
2010-09-29 06:02:12 51°25.073 2°52.431 0.1 13.7 359 25.5
2010-09-29 06:02:17 51°25.092 2°52.43 0.1 13.6 359 25.7
2010-09-29 06:02:22 51°25.111 2°52.43 0.5 13.9 359 25.6
2010-09-29 06:02:27 51°25.13 2°52.429 0.3 13.8 359 25.3
2010-09-29 06:02:32 51°25.149 2°52.429 0.6 13.6 359 25.3
2010-09-29 06:02:37 51°25.168 2°52.428 -999 13.8 358 25.3
2010-09-29 06:02:42 51°25.187 2°52.428 359.9 13.7 359 25.3
2010-09-29 06:02:47 51°25.206 2°52.428 0.1 13.8 -999 25.1
2010-09-29 06:02:52 51°25.226 2°52.429 0.2 13.9 1 24.8
2010-09-29 06:02:57 51°25.245 2°52.43 0.8 13.9 2 24.8
2010-09-29 06:03:02 51°25.265 2°52.43 1.3 14 1 24.8
2010-09-29 06:03:07 51°25.284 2°52.431 0.8 14.1 1 24.3
2010-09-29 06:03:12 51°25.304 2°52.431 0.5 14 1 24.2
2010-09-29 06:03:17 51°25.323 2°52.431 0.4 13.9 -999 24.5
2010-09-29 06:03:22 51°25.342 2°52.432 0.2 13.8 1 24.7
2010-09-29 06:03:27 51°25.362 2°52.433 0.3 13.9 1 24.1
2010-09-29 06:03:33 51°25.385 2°52.434 0.1 13.9 2 24
2010-09-29 06:03:37 51°25.401 2°52.435 0.4 14 2 24.3
2010-09-29 06:03:42 51°25.42 2°52.437 1.5 14 4 24.4
2010-09-29 06:03:47 51°25.439 2°52.44 3.1 13.9 5 24.5
2010-09-29 06:03:52 51°25.458 2°52.443 4.2 14 7 24.7
2010-09-29 06:03:57 51°25.477 2°52.446 5.6 14 7 24.9
2010-09-29 06:04:02 51°25.496 2°52.45 6.3 13.9 9 24.8
2010-09-29 06:04:07 51°25.516 2°52.454 7.4 14.1 7 24.9
2010-09-29 06:04:12 51°25.535 2°52.46 7.8 14.1 11 25.4
2010-09-29 06:04:17 51°25.555 2°52.464 8.8 14.2 8 25.4
2010-09-29 06:04:22 51°25.574 2°52.47 8.6 14 10 25.2
2010-09-29 06:04:27 51°25.593 2°52.476 9.1 14.1 10 25.6
2010-09-29 06:04:32 51°25.613 2°52.481 8.9 14.3 10 25.7
2010-09-29 06:04:37 51°25.632 2°52.486 9.1 14.1 11 25.6
2010-09-29 06:04:42 51°25.651 2°52.492 9.9 14.1 11 25.9
2010-09-29 06:04:47 51°25.67 2°52.499 10.9 14.3 12 26.1
2010-09-29 06:04:52 51°25.689 2°52.506 11.6 14.2 13 26.6
2010-09-29 06:04:57 51°25.708 2°52.513 11.8 14.2 13 26.7
2010-09-29 06:05:02 51°25.727 2°52.521 12.8 14 14 27.3
2010-09-29 06:05:07 51°25.746 2°52.528 13.1 13.9 14 28.1
2010-09-29 06:05:12 51°25.765 2°52.536 13.1 14.1 14 28.1
2010-09-29 06:05:17 51°25.784 2°52.544 13.2 14.2 14 27.4
2010-09-29 06:05:22 51°25.803 2°52.551 13.4 14 13 27.3
2010-09-29 06:05:27 51°25.822 2°52.559 13.2 14 15 27.6
2010-09-29 06:05:32 51°25.84 2°52.567 13.7 14.1 14 28
2010-09-29 06:05:37 51°25.86 2°52.574 12.8 14.1 14 27.7
2010-09-29 06:05:42 51°25.878 2°52.582 13.6 14.2 15 28.1
2010-09-29 06:05:47 51°25.898 2°52.588 12.9 14.1 13 28.4
2010-09-29 06:05:52 51°25.917 2°52.596 13 14.1 14 28
2010-09-29 06:05:57 51°25.936 2°52.603 12.7 14.1 13 28.2
2010-09-29 06:06:02 51°25.955 2°52.611 13 14.3 15 28.1
2010-09-29 06:06:07 51°25.974 2°52.618 13.1 14 13 27.9
2010-09-29 06:06:12 51°25.992 2°52.626 12.7 14 15 28.5
2010-09-29 06:06:17 51°26.011 2°52.634 12.8 14.1 14 28.7
2010-09-29 06:06:22 51°26.031 2°52.641 12.8 14.2 15 28.6
2010-09-29 06:06:27 51°26.05 2°52.649 13.1 14.2 14 28.5
2010-09-29 06:06:32 51°26.069 2°52.656 12.9 14.2 14 28.7
2010-09-29 06:06:37 51°26.087 2°52.665 13.1 14.1 15 28.6
2010-09-29 06:06:42 51°26.106 2°52.672 12.8 14.1 14 28.1
2010-09-29 06:06:47 51°26.126 2°52.679 12.5 14.1 14 28.2
2010-09-29 06:06:52 51°26.144 2°52.686 12.8 13.9 13 28.1
2010-09-29 06:06:57 51°26.163 2°52.694 13 13.9 14 28.2
2010-09-29 06:07:02 51°26.183 2°52.701 12.8 14.1 13 27.8
2010-09-29 06:07:07 51°26.202 2°52.708 12.5 14.2 14 27.2
2010-09-29 06:07:12 51°26.221 2°52.715 12.6 14.1 13 27
2010-09-29 06:07:17 51°26.24 2°52.722 12.7 14.2 13 27.1
2010-09-29 06:07:22 51°26.259 2°52.73 12.5 14.1 13 27.1
2010-09-29 06:07:27 51°26.278 2°52.737 12.5 14.2 14 27.6
2010-09-29 06:07:32 51°26.297 2°52.744 12.2 14.1 13 27
2010-09-29 06:07:37 51°26.316 2°52.752 12.4 14.2 15 26.9
2010-09-29 06:07:42 51°26.335 2°52.759 12.5 14.1 13 26.2
2010-09-29 06:07:47 51°26.354 2°52.767 13 14 14 26.7
2010-09-29 06:07:52 51°26.373 2°52.774 12.6 13.8 12 26.2
2010-09-29 06:07:57 51°26.391 2°52.782 12.8 13.9 15 26.7
2010-09-29 06:08:02 51°26.411 2°52.788 12.5 14 12 26.3
2010-09-29 06:08:07 51°26.43 2°52.796 12.2 14.2 14 26.5
2010-09-29 06:08:13 51°26.453 2°52.805 12.4 14.1 13 26
2010-09-29 06:08:17 51°26.468 2°52.812 12.5 14.2 15 25.8
2010-09-29 06:08:22 51°26.487 2°52.819 13.1 14.1 13 26.3
2010-09-29 06:08:27 51°26.505 2°52.826 12.4 14 14 27
2010-09-29 06:08:32 51°26.525 2°52.833 12.4 14.1 13 28.1
2010-09-29 06:08:37 51°26.544 2°52.84 12.6 14.1 13 28.4
2010-09-29 06:08:42 51°26.563 2°52.849 12.9 14.2 14 29.3
2010-09-29 06:08:47 51°26.582 2°52.855 12.5 14 13 29.4
2010-09-29 06:08:52 51°26.601 2°52.863 12.4 14.1 14 29.4
2010-09-29 06:08:57 51°26.62 2°52.87 12.3 14.2 12 29.1
2010-09-29 06:09:02 51°26.639 2°52.878 12.4 14.1 14 29.4
2010-09-29 06:09:07 51°26.658 2°52.885 12.4 14.2 14 29
2010-09-29 06:09:12 51°26.678 2°52.892 12.8 14.3 13 29.3
2010-09-29 06:09:17 51°26.697 2°52.9 12.3 14.2 13 29.9
2010-09-29 06:09:22 51°26.716 2°52.907 12.2 14.1 13 29.1
2010-09-29 06:09:28 51°26.739 2°52.915 12.1 14.1 13 29.3
2010-09-29 06:09:32 51°26.754 2°52.922 12.6 14.2 15 29.1
2010-09-29 06:09:37 51°26.773 2°52.928 12.5 14 12 28.7
2010-09-29 06:09:42 51°26.792 2°52.935 12.4 14 14 29
2010-09-29 06:09:47 51°26.811 2°52.941 12.2 14 11 29.1
2010-09-29 06:09:52 51°26.83 2°52.948 11.8 14.1 12 29
2010-09-29 06:09:57 51°26.849 2°52.954 11.7 14 11 29.2
2010-09-29 06:10:02 51°26.868 2°52.961 12.4 14 13 29
2010-09-29 06:10:07 51°26.887 2°52.967 12.6 14 12 29.1
2010-09-29 06:10:13 51°26.91 2°52.976 12.6 14 13 28.7
2010-09-29 06:10:17 51°26.925 2°52.98 12.5 13.9 11 29.5
2010-09-29 06:10:22 51°26.944 2°52.988 12.2 14 14 29.8
2010-09-29 06:10:27 51°26.963 2°52.993 12.5 14 10 29.5
2010-09-29 06:10:32 51°26.981 2°53.001 12.2 14 15 29.4
2010-09-29 06:10:37 51°27 2°53.007 13 13.9 11 27.6
2010-09-29 06:10:42 51°27.019 2°53.014 12.4 13.9 13 29.1
2010-09-29 06:10:47 51°27.038 2°53.02 12.5 14 11 28.1
2010-09-29 06:10:52 51°27.057 2°53.026 12.3 13.9 12 26
2010-09-29 06:10:57 51°27.076 2°53.033 12.6 13.9 12 27.3
2010-09-29 06:11:02 51°27.094 2°53.039 12.4 13.9 12 28.1
2010-09-29 06:11:07 51°27.113 2°53.046 12.7 13.9 11 26.6
2010-09-29 06:11:12 51°27.132 2°53.052 12.5 13.9 12 25.4
2010-09-29 06:11:17 51°27.151 2°53.059 12.6 13.9 13 27.1
2010-09-29 06:11:22 51°27.17 2°53.065 12.8 14 12 27.9
2010-09-29 06:11:27 51°27.189 2°53.071 12.5 14 11 27.3
2010-09-29 06:11:32 51°27.208 2°53.078 12.5 13.9 12 25.5
2010-09-29 06:11:37 51°27.227 2°53.084 12.5 13.9 11 24.1
2010-09-29 06:11:42 51°27.246 2°53.09 12.3 14 12 25.5
2010-09-29 06:11:47 51°27.264 2°53.097 12.8 14 13 24.5
2010-09-29 06:11:52 51°27.284 2°53.103 12.8 14 12 24.8
2010-09-29 06:11:57 51°27.303 2°53.111 12.5 14.1 13 23.9
2010-09-29 06:12:02 51°27.321 2°53.117 12.8 14.1 13 24
2010-09-29 06:12:07 51°27.34 2°53.124 12.6 13.9 12 24.6
2010-09-29 06:12:12 51°27.359 2°53.13 12.4 14 12 22.4
2010-09-29 06:12:17 51°27.378 2°53.137 12.6 13.9 12 24.1
2010-09-29 06:12:22 51°27.397 2°53.142 12.1 14 11 23.4
2010-09-29 06:12:27 51°27.416 2°53.149 12.1 13.8 12 22
2010-09-29 06:12:33 51°27.438 2°53.157 12.4 13.8 13 23.1
2010-09-29 06:12:37 51°27.454 2°53.161 12.7 13.9 11 22.8
2010-09-29 06:12:42 51°27.472 2°53.168 12.3 13.9 12 20.4
2010-09-29 06:12:47 51°27.491 2°53.174 12.4 13.7 11 22.4
2010-09-29 06:12:52 51°27.51 2°53.179 12.1 13.8 10 22.7
2010-09-29 06:12:57 51°27.529 2°53.185 11.7 13.9 11 20
2010-09-29 06:13:02 51°27.548 2°53.191 12.3 13.9 11 21.7
2010-09-29 06:13:07 51°27.566 2°53.198 12.2 13.9 12 21.5
2010-09-29 06:13:12 51°27.585 2°53.204 12.5 14 13 21.2
2010-09-29 06:13:17 51°27.604 2°53.21 12.9 14 11 21.9
2010-09-29 06:13:22 51°27.623 2°53.217 12.6 13.9 12 20.1
2010-09-29 06:13:27 51°27.642 2°53.223 12.1 13.9 12 21.4
2010-09-29 06:13:32 51°27.661 2°53.229 12.5 14 12 22.2
2010-09-29 06:13:37 51°27.68 2°53.235 12.3 13.9 10 22.7
2010-09-29 06:13:42 51°27.699 2°53.24 12.4 13.8 11 20.6
2010-09-29 06:13:47 51°27.718 2°53.246 12.1 13.8 11 21.8
2010-09-29 06:13:52 51°27.737 2°53.252 12.1 13.9 11 22.2
2010-09-29 06:13:57 51°27.756 2°53.258 12.3 13.9 11 21.4
2010-09-29 06:14:02 51°27.775 2°53.264 12.1 13.9 11 21.8
2010-09-29 06:14:07 51°27.794 2°53.27 12.6 13.9 12 20.8
2010-09-29 06:14:12 51°27.812 2°53.276 12.3 13.8 11 20.8
2010-09-29 06:14:17 51°27.831 2°53.283 12.6 13.9 13 21.3
2010-09-29 06:14:22 51°27.85 2°53.288 12.6 13.9 10 21.5
2010-09-29 06:14:27 51°27.869 2°53.296 12.6 13.7 14 21.6
2010-09-29 06:14:33 51°27.891 2°53.302 12.9 13.6 11 20.7
2010-09-29 06:14:37 51°27.906 2°53.308 12.7 13.7 13 21.4
2010-09-29 06:14:42 51°27.925 2°53.314 12.7 13.7 12 22.4
2010-09-29 06:14:47 51°27.943 2°53.32 12.1 13.7 11 21.4
2010-09-29 06:14:52 51°27.962 2°53.327 12.4 13.8 14 21.9
2010-09-29 06:14:57 51°27.981 2°53.333 12.6 13.9 11 21.1
2010-09-29 06:15:02 51°27.999 2°53.34 12.4 13.8 13 20.7
2010-09-29 06:15:07 51°28.018 2°53.346 12.6 13.7 11 21.2
2010-09-29 06:15:12 51°28.037 2°53.352 12 14 12 21.9
2010-09-29 06:15:17 51°28.056 2°53.358 12.1 14 10 22.2
2010-09-29 06:15:22 51°28.075 2°53.365 12.2 14 12 22.7
2010-09-29 06:15:27 51°28.094 2°53.371 11.9 13.9 12 20.5
2010-09-29 06:15:32 51°28.113 2°53.377 12.1 14 12 21.4
2010-09-29 06:15:37 51°28.132 2°53.383 12.3 14 12 22.3
2010-09-29 06:15:42 51°28.151 2°53.389 12.4 14.1 11 22.7
2010-09-29 06:15:47 51°28.17 2°53.395 12 14 12 22
2010-09-29 06:15:52 51°28.189 2°53.402 12.6 14 12 22.8
2010-09-29 06:15:57 51°28.209 2°53.408 12.4 14 12 23.5
2010-09-29 06:16:02 51°28.228 2°53.414 12.2 14.1 12 23.1
2010-09-29 06:16:07 51°28.247 2°53.42 12.4 14 11 21.6
2010-09-29 06:16:12 51°28.266 2°53.426 12.1 14 11 22.4
2010-09-29 06:16:17 51°28.285 2°53.433 12.2 14.2 12 23.4
2010-09-29 06:16:22 51°28.304 2°53.438 12.1 14.2 10 23.5
2010-09-29 06:16:27 51°28.323 2°53.445 11.9 14 12 23.1
2010-09-29 06:16:32 51°28.343 2°53.451 11.9 14 11 22.7
2010-09-29 06:16:37 51°28.361 2°53.458 12.1 14 13 23.6
2010-09-29 06:16:42 51°28.381 2°53.464 12.6 13.9 12 24.8
2010-09-29 06:16:47 51°28.4 2°53.47 12 14.1 12 23
2010-09-29 06:16:52 51°28.419 2°53.476 12.2 14 11 23.7
2010-09-29 06:16:57 51°28.438 2°53.483 12.3 14 13 23.6
2010-09-29 06:17:02 51°28.457 2°53.489 12.5 14.1 12 24.2
2010-09-29 06:17:07 51°28.476 2°53.495 12 14.1 12 24
2010-09-29 06:17:12 51°28.495 2°53.502 12 14.3 12 24.4
2010-09-29 06:17:17 51°28.514 2°53.508 12 14.1 12 24
2010-09-29 06:17:22 51°28.534 2°53.516 12.6 14.2 13 24.4
2010-09-29 06:17:27 51°28.553 2°53.522 12.4 14.2 12 24.8
2010-09-29 06:17:32 51°28.572 2°53.529 12.6 14.2 13 24.9
2010-09-29 06:17:37 51°28.591 2°53.535 12.7 14.2 12 25
2010-09-29 06:17:42 51°28.611 2°53.543 12.5 14.3 14 25.3
2010-09-29 06:17:47 51°28.63 2°53.549 12.6 14.4 12 25.4
2010-09-29 06:17:52 51°28.649 2°53.556 12.3 14.4 13 25.4
2010-09-29 06:17:57 51°28.669 2°53.563 12.9 14.3 13 25.2
2010-09-29 06:18:02 51°28.688 2°53.569 12 14.1 12 25.1
2010-09-29 06:18:07 51°28.706 2°53.577 12.1 14 13 25.7
2010-09-29 06:18:12 51°28.726 2°53.583 12.3 14.1 13 26.1
2010-09-29 06:18:17 51°28.745 2°53.591 13 14.1 14 25.6
2010-09-29 06:18:22 51°28.764 2°53.597 12 14 12 26.2
2010-09-29 06:18:27 51°28.783 2°53.605 12.4 14.1 13 25.9
2010-09-29 06:18:32 51°28.801 2°53.611 12.3 13.9 12 25.8
2010-09-29 06:18:37 51°28.82 2°53.618 12.3 13.9 13 26.5
2010-09-29 06:18:42 51°28.839 2°53.624 12.5 14 12 26.4
2010-09-29 06:18:47 51°28.859 2°53.631 12.4 14.1 13 26.5
2010-09-29 06:18:52 51°28.878 2°53.638 12.5 14.1 12 26.6
2010-09-29 06:18:57 51°28.897 2°53.645 12.4 14.1 13 27.1
2010-09-29 06:19:02 51°28.916 2°53.651 12.3 14.2 11 27
2010-09-29 06:19:07 51°28.935 2°53.657 11.5 14.1 12 27.3
2010-09-29 06:19:12 51°28.954 2°53.664 12.1 14.1 13 27.4
2010-09-29 06:19:17 51°28.973 2°53.67 12.2 14.1 11 27.2
2010-09-29 06:19:22 51°28.993 2°53.677 12.2 14.2 13 27.8
2010-09-29 06:19:27 51°29.012 2°53.684 12.5 14.1 12 27.6
2010-09-29 06:19:32 51°29.031 2°53.691 12.4 14 13 27.7
2010-09-29 06:19:37 51°29.05 2°53.697 12.2 14.1 12 28.1
2010-09-29 06:19:42 51°29.069 2°53.703 12.4 14.1 12 28.1
2010-09-29 06:19:47 51°29.088 2°53.71 12.3 14.1 12 28.1
2010-09-29 06:19:52 51°29.107 2°53.717 12.4 14.2 12 28.5
2010-09-29 06:19:57 51°29.126 2°53.724 12.2 14 12 28.9
2010-09-29 06:20:02 51°29.145 2°53.731 12.8 14 13 28.6
2010-09-29 06:20:07 51°29.164 2°53.737 12.7 14 12 28.6
2010-09-29 06:20:12 51°29.183 2°53.744 12.2 14.1 12 28.8
2010-09-29 06:20:17 51°29.202 2°53.75 12.1 14 12 29
2010-09-29 06:20:22 51°29.222 2°53.756 11.7 14 12 28.9
2010-09-29 06:20:27 51°29.241 2°53.763 12 14.1 12 29.2
2010-09-29 06:20:32 51°29.26 2°53.77 12.4 14.1 13 29
2010-09-29 06:20:37 51°29.279 2°53.776 12.8 14.1 12 28.9
2010-09-29 06:20:42 51°29.298 2°53.783 12.2 14.1 12 29.2
2010-09-29 06:20:47 51°29.317 2°53.789 11.7 14 11 29
2010-09-29 06:20:52 51°29.336 2°53.795 11.7 14 12 29.2
2010-09-29 06:20:57 51°29.355 2°53.802 12.1 14 12 29.7
2010-09-29 06:21:02 51°29.374 2°53.808 12.1 14 12 29.6
2010-09-29 06:21:07 51°29.393 2°53.815 12.3 14.1 13 30.2
2010-09-29 06:21:12 51°29.412 2°53.822 12.6 14 13 29.9
2010-09-29 06:21:17 51°29.432 2°53.829 12.8 14.2 13 30.1
2010-09-29 06:21:22 51°29.451 2°53.836 12.7 14.2 13 30.3
2010-09-29 06:21:27 51°29.47 2°53.844 12.9 14.2 14 30.4
2010-09-29 06:21:33 51°29.493 2°53.853 13 14.3 14 30.3
2010-09-29 06:21:37 51°29.508 2°53.861 13.3 14.3 16 30.8
2010-09-29 06:21:42 51°29.527 2°53.869 14.4 14.2 15 30.5
2010-09-29 06:21:47 51°29.546 2°53.878 14.7 14.4 17 30.4
2010-09-29 06:21:52 51°29.565 2°53.887 15.3 14.3 16 30.3
2010-09-29 06:21:57 51°29.584 2°53.896 15.4 14.3 16 30.6
2010-09-29 06:22:02 51°29.603 2°53.906 15.3 14.4 17 30.6
2010-09-29 06:22:07 51°29.622 2°53.915 15.6 14.3 17 30.9
2010-09-29 06:22:12 51°29.641 2°53.924 15.4 14.3 16 31.3
2010-09-29 06:22:17 51°29.66 2°53.933 15.3 14.4 18 31.6
2010-09-29 06:22:22 51°29.68 2°53.942 15.5 14.5 16 31.3
2010-09-29 06:22:27 51°29.699 2°53.952 15.5 14.4 17 31.4
2010-09-29 06:22:32 51°29.718 2°53.961 15.8 14.4 17 31.9
2010-09-29 06:22:37 51°29.737 2°53.969 15.5 14.4 16 31.2
2010-09-29 06:22:42 51°29.756 2°53.979 15.3 14.4 17 31.2
2010-09-29 06:22:47 51°29.775 2°53.988 15.3 14.5 16 31.1
2010-09-29 06:22:52 51°29.795 2°53.998 15.4 14.5 17 30.9
2010-09-29 06:22:57 51°29.814 2°54.006 15.4 14.5 16 31.4
2010-09-29 06:23:02 51°29.833 2°54.015 14.9 14.6 16 31.1
2010-09-29 06:23:07 51°29.853 2°54.024 15.1 14.5 15 31.3
2010-09-29 06:23:12 51°29.872 2°54.034 15.3 14.5 17 31.1
2010-09-29 06:23:17 51°29.891 2°54.043 15.4 14.5 17 31.7
2010-09-29 06:23:22 51°29.91 2°54.053 15.6 14.5 17 32.1
2010-09-29 06:23:28 51°29.934 2°54.063 15.8 14.5 16 31.8
2010-09-29 06:23:33 51°29.953 2°54.071 14.4 14.4 16 31.7
2010-09-29 06:23:37 51°29.968 2°54.079 14.8 14.5 16 31.9
2010-09-29 06:23:42 51°29.987 2°54.088 15.3 14.4 17 31.9
2010-09-29 06:23:47 51°30.006 2°54.097 15.4 14.4 17 32.1
2010-09-29 06:23:52 51°30.026 2°54.107 15.4 14.6 16 32.5
2010-09-29 06:23:57 51°30.045 2°54.116 15.3 14.5 16 31.5
2010-09-29 06:24:02 51°30.063 2°54.125 15.3 14.3 16 32
2010-09-29 06:24:07 51°30.083 2°54.134 15.3 14.3 17 32
2010-09-29 06:24:12 51°30.102 2°54.144 15.4 14.2 18 32
2010-09-29 06:24:17 51°30.121 2°54.153 15.8 14.3 17 32
2010-09-29 06:24:22 51°30.14 2°54.162 15.5 14.4 17 32.2
2010-09-29 06:24:27 51°30.159 2°54.171 15.3 14.4 16 32.1
2010-09-29 06:24:32 51°30.178 2°54.18 15.4 14.4 17 32.2
2010-09-29 06:24:37 51°30.197 2°54.189 15.2 14.4 15 33.3
2010-09-29 06:24:42 51°30.216 2°54.199 15 14.5 18 33
2010-09-29 06:24:47 51°30.236 2°54.207 15.2 14.4 16 32.8
2010-09-29 06:24:52 51°30.255 2°54.217 15.2 14.4 17 32.7
2010-09-29 06:24:57 51°30.274 2°54.225 15.5 14.4 16 33
2010-09-29 06:25:02 51°30.293 2°54.235 15.5 14.4 17 33.6
2010-09-29 06:25:07 51°30.312 2°54.244 15.4 14.5 16 34
2010-09-29 06:25:12 51°30.331 2°54.253 15.3 14.3 17 33.5
2010-09-29 06:25:17 51°30.35 2°54.262 15.3 14.3 17 34.5
2010-09-29 06:25:22 51°30.369 2°54.271 15.3 14.4 17 35.2
2010-09-29 06:25:27 51°30.389 2°54.28 15.5 14.4 15 35.6
2010-09-29 06:25:33 51°30.411 2°54.291 14.9 14.4 17 34.9
2010-09-29 06:25:37 51°30.427 2°54.297 15.4 14.4 16 34.7
2010-09-29 06:25:42 51°30.446 2°54.307 15.1 14.5 17 35.1
2010-09-29 06:25:47 51°30.465 2°54.315 15.3 14.4 16 35.2
2010-09-29 06:25:52 51°30.484 2°54.324 15.5 14.4 17 34.8
2010-09-29 06:25:57 51°30.504 2°54.332 15.2 14.4 15 34.1
2010-09-29 06:26:02 51°30.522 2°54.342 15.3 14.3 17 34
2010-09-29 06:26:07 51°30.542 2°54.35 15.6 14.3 15 33.7